TimeEST,TemperatureF,Dew PointF,Humidity,Sea Level PressureIn,VisibilityMPH,Wind Direction,Wind SpeedMPH,Gust SpeedMPH,PrecipitationIn,Events,Conditions,WindDirDegrees,DateUTC
12:54 AM,34.0,19.9,56,29.81,10.0,WNW,12.7,21.9,N/A,,Mostly Cloudy,290,2013-02-20 05:54:00
1:54 AM,32.0,18.0,56,29.83,10.0,WNW,10.4,16.1,N/A,,Clear,290,2013-02-20 06:54:00
2:54 AM,30.9,18.0,59,29.83,10.0,WNW,10.4,16.1,N/A,,Scattered Clouds,300,2013-02-20 07:54:00
4:54 AM,28.9,14.0,54,29.87,10.0,WNW,9.2,25.3,N/A,,Clear,300,2013-02-20 09:54:00
5:54 AM,28.9,16.0,58,29.88,10.0,NW,11.5,18.4,N/A,,Mostly Cloudy,310,2013-02-20 10:54:00
6:54 AM,28.0,17.1,63,29.91,10.0,WNW,13.8,23.0,N/A,,Mostly Cloudy,300,2013-02-20 11:54:00
7:54 AM,27.0,12.9,56,29.94,10.0,WNW,19.6,29.9,N/A,,Overcast,300,2013-02-20 12:54:00
8:54 AM,28.0,12.0,51,29.95,10.0,WNW,16.1,23.0,N/A,,Overcast,290,2013-02-20 13:54:00
10:54 AM,28.9,10.0,45,29.95,10.0,WNW,17.3,29.9,N/A,,Clear,300,2013-02-20 15:54:00
11:54 AM,30.9,10.9,43,29.94,10.0,West,16.1,26.5,N/A,,Scattered Clouds,280,2013-02-20 16:54:00
12:54 PM,28.9,10.9,47,29.94,10.0,NW,19.6,27.6,N/A,,Mostly Cloudy,310,2013-02-20 17:54:00
1:54 PM,28.9,10.9,47,29.95,10.0,WNW,10.4,21.9,N/A,,Mostly Cloudy,290,2013-02-20 18:54:00
2:54 PM,28.9,10.9,47,29.96,10.0,WNW,18.4,27.6,N/A,,Overcast,300,2013-02-20 19:54:00
4:54 PM,28.9,9.0,43,29.98,10.0,WNW,16.1,28.8,N/A,,Mostly Cloudy,290,2013-02-20 21:54:00
5:54 PM,27.0,9.0,47,30.01,10.0,WNW,12.7,23.0,N/A,,Clear,290,2013-02-20 22:54:00
6:54 PM,26.1,10.0,51,30.02,10.0,WNW,11.5,24.2,N/A,,Partly Cloudy,290,2013-02-20 23:54:00
7:54 PM,26.1,10.9,53,30.04,10.0,WNW,13.8,21.9,N/A,,Clear,290,2013-02-21 00:54:00
8:54 PM,25.0,10.0,53,30.04,10.0,WNW,9.2,19.6,N/A,,Partly Cloudy,290,2013-02-21 01:54:00
9:54 PM,25.0,9.0,51,30.04,10.0,WNW,9.2,18.4,N/A,,Clear,290,2013-02-21 02:54:00
11:54 PM,24.1,9.0,53,30.06,10.0,WNW,9.2,20.7,N/A,,Partly Cloudy,290,2013-02-21 04:54:00